KCAE/CAE METAR and TAF weather

Enter ICAO airport designator
Station Type Date Time Source
KCAE METAR 2022/06/25 21:56 UTC NOAA

KCAE 252156Z 11010KT 10SM FEW060 SCT250 32/17 A3005 RMK AO2 SLP171 T03220172


Station Type Date Time Source
KCAE Decoded METAR 2022/06/25 21:56 UTC NOAA

COLUMBIA METROPOLITAN AIRPORT , SC, United States (KCAE) 33-57N 081-07W 73M
Jun 25, 2022 - 05:56 PM EDT / 2022.06.25 2156 UTC
Wind: from the ESE (110 degrees) at 12 MPH (10 KT):0
Visibility: 10 mile(s):0
Sky conditions: partly cloudy
Temperature: 90.0 F (32.2 C)
Dew Point: 63.0 F (17.2 C)
Relative Humidity: 40%
Pressure (altimeter): 30.05 in. Hg (1017 hPa)
ob: KCAE 252156Z 11010KT 10SM FEW060 SCT250 32/17 A3005 RMK AO2 SLP171 T03220172
cycle: 22

Station Type Date Time Source
KCAE TAF 2022/06/25 21:48 UTC NOAA

TAF
AMD KCAE 252047Z 2521/2618 10009KT P6SM SCT060 SCT200
FM260200 16005KT P6SM FEW050 SCT200
FM261000 VRB03KT P6SM SCT012 SCT200
FM261300 09005KT P6SM SCT200

Example: see airport list